首页
METAR-TAF:

METAR-TAF

机场 :

胡志明, 越南

新山一國際機場

纬度: 10-49N, 经度: 106-40E, 海拔: 19米

当前天气观测

该预报发布于18分钟前的03:00 UTC
风速3节,风向多变
温度 30°C
湿度 70%
气压 1010 hPa
能见度10公里或以上
少量云层高于1700英尺

METAR: VVTS 200300Z VRB03KT 9999 FEW017 30/24 Q1010 NOSIG

时间: 10:18 (03:18 UTC)

预报

该预报发布于4小时和18分钟前的23:00 UTC
预报有效从20日的 00点(UTC)到 21日的 06点(UTC)
风速6节,风向西转西北
能見度: 5000
散云层高于1500英尺
散云层高于4000英尺
轻雾
成为
从 20日的 01点(UTC)到 20日的 02点(UTC)
能见度10公里或以上

TAF: VVTS 192300Z 2000/2106 30006KT 5000 BR SCT015 SCT040 BECMG 2001/2002 9999 NSW

超过4000个机场的气象观测和天气预报(METAR&TAF报告)。

可查询的气象台以黄色和红色小点在地图上表示。

将鼠标移到小点上方,可查看气象台名称。

然后点击查看天气观测和预报。

如需切换地图:点击带黑十字的绿色按钮放大地图;点击带横线的绿色按钮缩小地图;或者点击绿色箭头查看邻近地区的地图。


METAR-TAF: